Time;durP1;ratioP1;P1;durP2;ratioP2;P2;SDS_P1;SDS_P2;PMS_P1;PMS_P2;Temp;Humidity;BMP_temperature;BMP_pressure;BME280_temperature;BME280_humidity;BME280_pressure;Samples;Min_cycle;Max_cycle;Signal;HPM_P1;HPM_P2
2023/06/21 00:01:38;;;;;;;10.85;9.95;;;14.50;99.90;;;;;;5025033;28;20042;-63
2023/06/21 00:04:05;;;;;;;13.13;11.77;;;14.50;99.90;;;;;;5028165;28;20053;-62
2023/06/21 00:06:34;;;;;;;13.20;11.57;;;14.50;99.90;;;;;;5023965;28;20748;-69
2023/06/21 00:09:05;;;;;;;12.02;10.93;;;14.40;99.90;;;;;;5024888;28;20072;-67
2023/06/21 00:11:33;;;;;;;11.15;10.07;;;14.40;99.90;;;;;;5023194;28;20049;-66
2023/06/21 00:14:01;;;;;;;11.35;10.20;;;14.40;99.90;;;;;;5025215;28;20052;-62
2023/06/21 00:16:28;;;;;;;10.60;9.60;;;14.40;99.90;;;;;;5023358;28;20037;-63
2023/06/21 00:18:54;;;;;;;11.98;10.88;;;14.30;99.90;;;;;;5022320;28;20095;-69
2023/06/21 00:21:21;;;;;;;11.95;10.75;;;14.30;99.90;;;;;;5023448;28;20515;-63
2023/06/21 00:23:48;;;;;;;12.05;10.90;;;14.30;99.90;;;;;;5023855;28;20459;-67
2023/06/21 00:26:15;;;;;;;12.43;11.32;;;14.30;99.90;;;;;;5023373;28;20091;-63
2023/06/21 00:28:42;;;;;;;12.50;11.23;;;14.20;99.90;;;;;;5027063;28;20404;-64
2023/06/21 00:31:10;;;;;;;11.52;10.40;;;14.20;99.90;;;;;;5019906;28;20441;-64
2023/06/21 00:33:38;;;;;;;10.15;9.23;;;14.20;99.90;;;;;;5024753;28;20081;-63
2023/06/21 00:36:05;;;;;;;11.50;10.48;;;14.20;99.90;;;;;;5023519;28;20598;-64
2023/06/21 00:38:35;;;;;;;14.65;11.00;;;14.10;99.90;;;;;;5023401;28;20136;-63
2023/06/21 00:41:04;;;;;;;11.73;10.63;;;14.10;99.90;;;;;;5023905;28;20045;-65
2023/06/21 00:43:32;;;;;;;11.25;10.23;;;14.10;99.90;;;;;;5022292;28;20053;-65
2023/06/21 00:45:59;;;;;;;12.23;11.10;;;14.10;99.90;;;;;;5022146;28;20045;-62
2023/06/21 00:48:28;;;;;;;12.57;10.52;;;14.10;99.90;;;;;;5024522;28;20099;-65
2023/06/21 00:50:58;;;;;;;13.88;12.52;;;14.10;99.90;;;;;;5026599;28;20045;-62
2023/06/21 00:53:27;;;;;;;13.23;11.80;;;14.10;99.90;;;;;;5025400;28;20053;-64
2023/06/21 00:56:00;;;;;;;12.10;10.98;;;14.00;99.90;;;;;;5024080;28;20041;-63
2023/06/21 00:58:28;;;;;;;11.63;10.43;;;14.00;99.90;;;;;;5019658;28;20041;-69
2023/06/21 01:00:55;;;;;;;11.63;10.52;;;14.00;99.90;;;;;;5019425;28;20475;-63
2023/06/21 01:03:24;;;;;;;12.07;10.88;;;14.00;99.90;;;;;;5021551;28;20518;-68
2023/06/21 01:06:11;;;;;;;12.85;11.55;;;14.00;99.90;;;;;;5020858;28;20073;-63
2023/06/21 01:09:04;;;;;;;11.60;10.50;;;14.00;99.90;;;;;;5017952;28;20053;-65
2023/06/21 01:11:58;;;;;;;11.15;10.15;;;14.00;99.90;;;;;;5019797;28;20511;-64
2023/06/21 01:14:39;;;;;;;12.73;11.63;;;14.00;99.90;;;;;;5025403;28;20050;-67
2023/06/21 01:17:09;;;;;;;11.85;10.75;;;14.00;99.90;;;;;;5025201;28;20045;-62
2023/06/21 01:19:47;;;;;;;11.35;10.30;;;14.00;99.90;;;;;;5026245;28;20103;-63
2023/06/21 01:22:35;;;;;;;11.60;10.57;;;13.90;99.90;;;;;;5018370;28;20041;-64
2023/06/21 01:25:21;;;;;;;11.57;10.48;;;14.00;99.90;;;;;;5023413;28;20131;-66
2023/06/21 01:27:57;;;;;;;11.95;10.85;;;14.00;99.90;;;;;;5023203;28;20132;-63
2023/06/21 01:30:26;;;;;;;13.85;12.45;;;14.00;99.90;;;;;;5022824;28;20069;-65
2023/06/21 01:32:55;;;;;;;11.63;10.52;;;14.00;99.90;;;;;;5022697;28;20099;-64
2023/06/21 01:35:24;;;;;;;11.95;10.85;;;14.00;99.90;;;;;;5024311;28;20152;-63
2023/06/21 01:37:51;;;;;;;12.98;11.70;;;14.00;99.90;;;;;;5023427;28;20909;-64
2023/06/21 01:40:19;;;;;;;12.55;11.35;;;14.00;99.90;;;;;;5022753;28;20399;-66
2023/06/21 01:42:46;;;;;;;13.45;11.82;;;14.00;99.90;;;;;;5022699;28;20391;-63
2023/06/21 01:45:13;;;;;;;12.20;11.10;;;14.00;99.90;;;;;;5023964;28;20123;-63
2023/06/21 01:47:43;;;;;;;14.13;12.77;;;14.00;99.90;;;;;;5036975;28;20049;-66
2023/06/21 01:50:12;;;;;;;15.00;13.52;;;14.00;99.90;;;;;;5017958;28;20048;-65
2023/06/21 01:52:40;;;;;;;13.13;11.93;;;14.00;99.90;;;;;;5019189;28;20053;-66
2023/06/21 01:55:08;;;;;;;14.23;12.90;;;13.90;99.90;;;;;;5017915;28;20119;-62
2023/06/21 01:57:35;;;;;;;17.52;15.82;;;13.90;99.90;;;;;;5021062;28;20048;-63
2023/06/21 02:00:16;;;;;;;16.67;14.98;;;13.90;99.90;;;;;;5011421;28;20108;-63
2023/06/21 02:02:53;;;;;;;17.00;15.35;;;13.90;99.90;;;;;;5020488;28;20396;-65
2023/06/21 02:05:21;;;;;;;20.33;18.23;;;14.00;99.90;;;;;;5023492;28;20053;-63
2023/06/21 02:07:49;;;;;;;19.00;17.17;;;14.00;99.90;;;;;;5037936;28;20407;-68
2023/06/21 02:10:18;;;;;;;21.52;18.55;;;14.00;99.90;;;;;;5024587;28;20041;-64
2023/06/21 02:12:52;;;;;;;22.20;19.92;;;14.00;99.90;;;;;;5021412;28;20064;-64
2023/06/21 02:15:19;;;;;;;20.45;18.38;;;14.00;99.90;;;;;;5021335;28;20038;-64
2023/06/21 02:17:50;;;;;;;27.00;24.23;;;14.00;99.90;;;;;;5022633;28;20061;-63
2023/06/21 02:20:22;;;;;;;26.08;23.50;;;14.10;99.90;;;;;;5036864;28;20045;-64
2023/06/21 02:22:49;;;;;;;23.42;21.13;;;14.10;99.90;;;;;;5022461;28;20029;-65
2023/06/21 02:25:16;;;;;;;22.90;20.58;;;14.20;99.90;;;;;;5022637;28;20503;-67
2023/06/21 02:27:44;;;;;;;20.02;17.95;;;14.20;99.90;;;;;;5020739;28;20092;-63
2023/06/21 02:30:11;;;;;;;22.60;18.98;;;14.30;99.90;;;;;;5020834;28;20048;-63
2023/06/21 02:32:38;;;;;;;20.08;17.88;;;14.40;99.90;;;;;;5031687;28;20058;-62
2023/06/21 02:35:06;;;;;;;21.65;15.20;;;14.40;99.90;;;;;;5026813;28;20132;-66
2023/06/21 02:37:33;;;;;;;20.15;16.17;;;14.50;99.90;;;;;;5027743;28;20792;-65
2023/06/21 02:40:10;;;;;;;19.70;15.63;;;14.50;99.90;;;;;;5028121;28;20103;-66
2023/06/21 02:42:39;;;;;;;16.77;13.50;;;14.60;99.90;;;;;;5044040;28;20152;-64
2023/06/21 02:45:08;;;;;;;21.30;14.80;;;14.60;99.90;;;;;;5023207;28;20057;-63
2023/06/21 02:47:35;;;;;;;24.70;15.88;;;14.60;99.90;;;;;;5025097;28;20107;-64
2023/06/21 02:50:03;;;;;;;26.25;15.32;;;14.60;99.90;;;;;;5028978;28;20052;-63
2023/06/21 02:52:30;;;;;;;23.00;15.50;;;14.70;99.90;;;;;;5024943;28;20069;-63
2023/06/21 02:54:58;;;;;;;21.95;14.15;;;14.70;99.90;;;;;;5024356;28;20045;-62
2023/06/21 02:57:25;;;;;;;23.63;14.55;;;14.70;99.90;;;;;;5025020;28;20042;-64
2023/06/21 02:59:51;;;;;;;20.45;13.15;;;14.80;99.90;;;;;;5026008;28;20065;-63
2023/06/21 03:02:18;;;;;;;21.98;13.82;;;14.90;99.90;;;;;;5027480;28;20596;-64
2023/06/21 03:04:45;;;;;;;17.50;13.38;;;14.90;99.90;;;;;;5023475;28;20049;-65
2023/06/21 03:07:12;;;;;;;22.50;14.93;;;14.90;99.90;;;;;;5025317;28;20041;-63
2023/06/21 03:09:39;;;;;;;22.30;14.65;;;14.90;99.90;;;;;;5025503;28;20053;-63
2023/06/21 03:12:07;;;;;;;27.52;16.38;;;14.90;99.90;;;;;;5027807;28;20053;-65
2023/06/21 03:14:39;;;;;;;22.75;15.98;;;14.90;99.90;;;;;;5023878;28;20107;-63
2023/06/21 03:17:09;;;;;;;18.73;14.90;;;15.00;99.90;;;;;;5023948;28;20057;-65
2023/06/21 03:19:36;;;;;;;24.92;18.05;;;15.00;99.90;;;;;;5040205;28;20396;-63
2023/06/21 03:22:04;;;;;;;25.85;18.13;;;15.10;99.90;;;;;;5024802;28;20053;-63
2023/06/21 03:24:32;;;;;;;25.23;20.90;;;15.00;99.90;;;;;;5023547;28;20515;-64
2023/06/21 03:27:02;;;;;;;21.15;17.30;;;15.10;99.90;;;;;;5023469;28;20053;-64
2023/06/21 03:29:33;;;;;;;21.33;16.40;;;15.10;99.90;;;;;;5023684;28;20148;-66
2023/06/21 03:32:01;;;;;;;18.85;16.92;;;15.10;99.90;;;;;;5023043;28;20088;-65
2023/06/21 03:34:29;;;;;;;23.05;19.23;;;15.10;99.90;;;;;;5021173;28;20057;-64
2023/06/21 03:36:55;;;;;;;23.77;20.85;;;15.10;99.90;;;;;;5023489;28;20056;-63
2023/06/21 03:39:25;;;;;;;27.02;22.20;;;15.20;99.90;;;;;;5022910;28;20057;-66
2023/06/21 03:41:52;;;;;;;24.80;20.02;;;15.20;99.90;;;;;;5040047;28;20446;-63
2023/06/21 03:44:19;;;;;;;32.58;24.38;;;15.20;99.90;;;;;;5022224;28;20057;-63
2023/06/21 03:46:46;;;;;;;23.67;21.38;;;15.20;99.90;;;;;;5026799;28;20045;-63
2023/06/21 03:49:13;;;;;;;24.75;21.95;;;15.20;99.90;;;;;;5023952;28;20049;-64
2023/06/21 03:51:40;;;;;;;24.20;21.02;;;15.20;99.90;;;;;;5025057;28;20045;-63
2023/06/21 03:54:07;;;;;;;24.48;22.00;;;15.20;99.90;;;;;;5024781;28;20042;-64
2023/06/21 03:56:34;;;;;;;22.27;19.92;;;15.30;99.90;;;;;;5022828;28;20056;-65
2023/06/21 03:59:01;;;;;;;21.77;19.48;;;15.30;99.90;;;;;;5024791;28;20056;-64
2023/06/21 04:01:28;;;;;;;21.52;19.48;;;15.30;99.90;;;;;;5026034;28;20115;-63
2023/06/21 04:03:56;;;;;;;26.20;20.88;;;15.40;99.90;;;;;;5038439;28;20136;-63
2023/06/21 04:06:23;;;;;;;21.65;19.48;;;15.40;99.90;;;;;;5024906;28;20578;-63
2023/06/21 04:08:50;;;;;;;23.20;21.05;;;15.40;99.90;;;;;;5026304;28;20140;-63
2023/06/21 04:11:17;;;;;;;20.98;18.88;;;15.50;99.90;;;;;;5037703;28;20623;-65
2023/06/21 04:13:44;;;;;;;23.05;20.77;;;15.60;99.90;;;;;;5026657;28;20037;-62
2023/06/21 04:16:13;;;;;;;19.90;17.92;;;15.60;99.90;;;;;;5024025;28;20121;-62
2023/06/21 04:18:40;;;;;;;19.55;17.70;;;15.70;99.90;;;;;;5023483;28;20373;-63
2023/06/21 04:21:07;;;;;;;23.20;20.85;;;15.70;99.90;;;;;;5022068;28;20753;-63
2023/06/21 04:23:34;;;;;;;23.20;20.88;;;15.80;99.90;;;;;;5040376;28;20500;-67
2023/06/21 04:26:05;;;;;;;25.40;21.65;;;15.80;99.90;;;;;;5023634;28;20419;-66
2023/06/21 04:28:33;;;;;;;26.38;23.35;;;15.90;99.90;;;;;;5024640;28;20136;-65
2023/06/21 04:31:00;;;;;;;24.33;21.15;;;16.00;99.90;;;;;;5022647;28;20120;-63
2023/06/21 04:33:28;;;;;;;22.23;19.85;;;16.00;99.90;;;;;;5022801;28;20038;-65
2023/06/21 04:35:57;;;;;;;22.17;19.92;;;16.00;99.90;;;;;;5026072;28;20128;-63
2023/06/21 04:38:24;;;;;;;18.08;16.27;;;16.10;99.90;;;;;;5023896;28;20045;-64
2023/06/21 04:40:54;;;;;;;14.50;13.02;;;16.20;99.90;;;;;;5023725;28;20115;-65
2023/06/21 04:43:25;;;;;;;14.45;12.95;;;16.20;99.90;;;;;;5021786;28;20069;-65
2023/06/21 04:45:52;;;;;;;13.90;12.45;;;16.20;99.90;;;;;;5024849;28;20074;-63
2023/06/21 04:48:19;;;;;;;12.65;11.38;;;16.30;99.90;;;;;;5023574;28;20045;-64
2023/06/21 04:50:46;;;;;;;10.95;9.95;;;16.30;99.90;;;;;;5024714;28;20089;-64
2023/06/21 04:53:13;;;;;;;11.43;10.40;;;16.40;99.90;;;;;;5022390;28;21704;-63
2023/06/21 04:55:43;;;;;;;9.85;8.95;;;16.40;99.90;;;;;;5021933;28;20099;-64
2023/06/21 04:58:12;;;;;;;8.57;7.82;;;16.40;99.90;;;;;;5024563;28;20120;-63
2023/06/21 05:00:39;;;;;;;7.38;6.68;;;16.50;99.90;;;;;;5022936;28;20128;-63
2023/06/21 05:03:06;;;;;;;9.98;8.63;;;16.50;99.90;;;;;;5020042;28;20083;-64
2023/06/21 05:05:33;;;;;;;9.43;8.60;;;16.50;99.90;;;;;;5024830;28;20411;-67
2023/06/21 05:08:00;;;;;;;7.93;7.13;;;16.60;99.90;;;;;;5018927;28;20084;-66
2023/06/21 05:10:27;;;;;;;7.07;6.47;;;16.60;99.90;;;;;;5024136;28;20108;-62
2023/06/21 05:12:57;;;;;;;7.95;7.25;;;16.70;99.90;;;;;;5021697;28;20045;-64
2023/06/21 05:15:24;;;;;;;9.90;7.68;;;16.90;99.90;;;;;;5024085;28;20865;-63
2023/06/21 05:17:51;;;;;;;7.25;6.68;;;16.90;99.90;;;;;;5022331;28;20092;-64
2023/06/21 05:20:20;;;;;;;7.95;7.18;;;17.00;99.90;;;;;;5025232;28;20485;-63
2023/06/21 05:22:47;;;;;;;8.07;7.22;;;17.00;99.90;;;;;;5026305;28;20050;-62
2023/06/21 05:25:14;;;;;;;6.45;5.85;;;17.10;99.90;;;;;;5024909;28;20037;-64
2023/06/21 05:27:41;;;;;;;7.15;6.53;;;17.20;99.90;;;;;;5020819;28;20069;-64
2023/06/21 05:30:08;;;;;;;7.10;6.40;;;17.40;99.90;;;;;;5022287;28;20041;-62
2023/06/21 05:32:35;;;;;;;6.72;6.05;;;17.40;99.90;;;;;;5014069;28;20041;-66
2023/06/21 05:35:02;;;;;;;7.03;6.40;;;17.50;99.90;;;;;;5022082;28;20050;-68
2023/06/21 05:37:29;;;;;;;6.97;6.38;;;17.60;99.90;;;;;;5020689;28;20140;-65
2023/06/21 05:40:00;;;;;;;6.85;6.25;;;17.70;99.90;;;;;;5023884;28;20041;-67
2023/06/21 05:42:27;;;;;;;7.13;6.47;;;17.80;99.90;;;;;;5024404;28;20095;-64
2023/06/21 05:44:54;;;;;;;6.15;5.65;;;17.80;99.90;;;;;;5022757;28;20120;-65
2023/06/21 05:47:21;;;;;;;6.13;5.65;;;17.90;99.90;;;;;;5015672;28;20046;-64
2023/06/21 05:49:48;;;;;;;7.47;6.85;;;17.90;99.90;;;;;;5016413;28;20679;-65
2023/06/21 05:52:16;;;;;;;6.97;6.35;;;18.00;99.90;;;;;;5021507;28;20038;-64
2023/06/21 05:54:44;;;;;;;6.82;6.22;;;18.00;99.90;;;;;;5021093;28;20041;-65
2023/06/21 05:57:11;;;;;;;6.20;5.70;;;18.20;99.90;;;;;;5020791;28;20056;-64
2023/06/21 05:59:38;;;;;;;6.00;5.50;;;18.20;99.90;;;;;;5021766;28;20079;-67
2023/06/21 06:02:05;;;;;;;6.50;5.90;;;18.20;99.90;;;;;;5018330;28;20084;-64
2023/06/21 06:04:33;;;;;;;6.63;5.93;;;18.30;99.90;;;;;;5019686;28;20048;-63
2023/06/21 06:06:59;;;;;;;7.03;6.32;;;18.40;99.90;;;;;;5022120;28;20081;-63
2023/06/21 06:09:26;;;;;;;7.97;6.53;;;18.40;99.90;;;;;;5019077;28;20187;-65
2023/06/21 06:11:54;;;;;;;6.47;5.97;;;18.50;99.90;;;;;;5020006;28;20050;-65
2023/06/21 06:14:20;;;;;;;7.45;6.75;;;18.60;99.90;;;;;;5016669;28;20037;-66
2023/06/21 06:16:47;;;;;;;11.38;7.07;;;18.70;99.90;;;;;;5021389;28;20099;-64
2023/06/21 06:19:14;;;;;;;7.88;7.00;;;18.70;99.90;;;;;;5019964;28;20053;-64
2023/06/21 06:21:41;;;;;;;6.93;6.22;;;18.80;99.90;;;;;;5019627;28;20333;-64
2023/06/21 06:24:08;;;;;;;7.82;7.00;;;18.90;99.90;;;;;;5023559;28;20049;-64
2023/06/21 06:26:36;;;;;;;7.30;6.70;;;19.00;99.90;;;;;;5019203;28;20057;-63
2023/06/21 06:29:03;;;;;;;7.43;6.80;;;19.10;99.90;;;;;;5018036;28;20034;-65
2023/06/21 06:31:30;;;;;;;7.85;7.13;;;19.20;99.90;;;;;;5019913;28;20050;-65
2023/06/21 06:33:57;;;;;;;9.85;6.63;;;19.20;99.90;;;;;;5023211;28;20053;-63
2023/06/21 06:36:24;;;;;;;7.35;6.75;;;19.30;99.90;;;;;;5021471;28;20514;-63
2023/06/21 06:38:52;;;;;;;8.25;7.55;;;19.30;99.90;;;;;;5023639;28;20038;-64
2023/06/21 06:41:19;;;;;;;7.28;6.15;;;19.40;99.90;;;;;;5017427;28;20046;-63
2023/06/21 06:43:46;;;;;;;8.10;7.40;;;19.50;99.90;;;;;;5017538;28;20041;-64
2023/06/21 06:46:14;;;;;;;8.27;7.38;;;19.70;99.90;;;;;;5020649;28;20041;-66
2023/06/21 06:48:41;;;;;;;7.50;6.80;;;19.80;99.90;;;;;;5021287;28;20546;-66
2023/06/21 06:51:08;;;;;;;7.53;6.93;;;19.90;99.90;;;;;;5020914;28;20073;-64
2023/06/21 06:53:34;;;;;;;9.02;8.30;;;19.90;99.90;;;;;;5018726;28;20561;-63
2023/06/21 06:56:01;;;;;;;8.43;7.20;;;19.90;99.90;;;;;;5018254;28;20073;-66
2023/06/21 06:58:28;;;;;;;9.30;8.45;;;20.10;99.90;;;;;;5016940;28;20479;-65
2023/06/21 07:00:56;;;;;;;10.18;9.13;;;20.10;99.90;;;;;;5021751;28;20084;-70
2023/06/21 07:03:23;;;;;;;8.82;7.90;;;20.20;99.90;;;;;;5020932;28;20052;-65
2023/06/21 07:05:50;;;;;;;8.40;7.57;;;20.20;99.90;;;;;;5018276;28;20081;-63
2023/06/21 07:08:18;;;;;;;7.97;7.28;;;20.30;99.90;;;;;;5022857;28;20085;-62
2023/06/21 07:10:45;;;;;;;8.80;8.00;;;20.40;99.90;;;;;;5020074;28;20073;-65
2023/06/21 07:13:12;;;;;;;8.60;7.57;;;20.50;99.90;;;;;;5018373;28;20046;-67
2023/06/21 07:15:39;;;;;;;8.57;7.80;;;20.70;99.90;;;;;;5023421;28;20099;-64
2023/06/21 07:18:06;;;;;;;8.90;8.10;;;20.70;99.90;;;;;;5022954;28;20523;-65
2023/06/21 07:20:34;;;;;;;7.93;7.10;;;20.70;99.90;;;;;;5028966;28;20155;-65
2023/06/21 07:23:02;;;;;;;7.93;7.22;;;20.80;99.90;;;;;;5020574;28;20100;-65
2023/06/21 07:25:29;;;;;;;8.65;7.72;;;20.80;99.90;;;;;;5025298;28;20049;-66
2023/06/21 07:27:56;;;;;;;9.27;8.38;;;20.90;99.90;;;;;;5020870;28;20049;-65
2023/06/21 07:30:23;;;;;;;9.48;8.57;;;21.00;99.90;;;;;;5022186;28;20046;-66
2023/06/21 07:32:51;;;;;;;10.13;9.32;;;21.10;99.90;;;;;;5024516;28;20076;-64
2023/06/21 07:35:18;;;;;;;9.07;8.18;;;21.20;99.90;;;;;;5025439;28;20060;-65
2023/06/21 07:37:46;;;;;;;9.00;7.97;;;21.40;99.90;;;;;;5024606;28;20041;-64
2023/06/21 07:40:13;;;;;;;7.72;7.07;;;21.40;99.90;;;;;;5019246;28;20475;-66
2023/06/21 07:42:40;;;;;;;8.32;7.13;;;21.50;99.90;;;;;;5024118;28;20111;-63
2023/06/21 07:45:08;;;;;;;9.45;8.43;;;21.50;99.90;;;;;;5023157;28;20515;-67
2023/06/21 07:47:35;;;;;;;10.63;9.63;;;21.60;99.90;;;;;;5025057;28;20484;-63
2023/06/21 07:50:04;;;;;;;11.15;8.85;;;21.70;99.90;;;;;;5022728;28;20056;-64
2023/06/21 07:52:47;;;;;;;10.88;9.38;;;21.80;99.90;;;;;;5024854;28;20053;-63
2023/06/21 07:55:14;;;;;;;9.60;8.73;;;22.00;99.90;;;;;;5020637;28;20881;-65
2023/06/21 07:57:41;;;;;;;9.20;8.30;;;22.00;99.90;;;;;;5023851;28;20583;-65
2023/06/21 08:00:11;;;;;;;12.25;11.20;;;22.10;99.90;;;;;;5021765;28;20129;-63
2023/06/21 08:02:44;;;;;;;10.32;9.43;;;22.10;99.90;;;;;;5025753;28;20466;-68
2023/06/21 08:05:13;;;;;;;11.40;10.27;;;22.20;99.90;;;;;;5023035;28;20045;-66
2023/06/21 08:07:41;;;;;;;10.77;9.70;;;22.20;99.90;;;;;;5019767;28;20088;-64
2023/06/21 08:10:09;;;;;;;8.35;7.65;;;22.40;99.90;;;;;;5017343;28;20060;-66
2023/06/21 08:12:36;;;;;;;8.13;7.47;;;22.40;99.90;;;;;;5025151;28;20487;-64
2023/06/21 08:15:05;;;;;;;6.60;6.00;;;22.10;99.90;;;;;;5021954;28;20116;-64
2023/06/21 08:17:32;;;;;;;9.25;8.30;;;22.00;99.90;;;;;;5022730;28;20054;-62
2023/06/21 08:19:59;;;;;;;9.40;7.47;;;21.60;99.90;;;;;;5023803;28;20048;-67
2023/06/21 08:22:26;;;;;;;11.10;7.88;;;21.50;99.90;;;;;;5021911;28;20046;-64
2023/06/21 08:24:56;;;;;;;8.35;7.65;;;21.50;99.90;;;;;;5026134;28;20616;-63
2023/06/21 08:27:23;;;;;;;8.80;7.93;;;21.30;99.90;;;;;;5022550;28;20049;-65
2023/06/21 08:29:50;;;;;;;11.50;8.35;;;21.40;99.90;;;;;;5023663;28;20050;-66
2023/06/21 08:32:19;;;;;;;7.63;7.03;;;21.50;99.90;;;;;;5023137;28;20045;-62
2023/06/21 08:34:47;;;;;;;9.13;8.23;;;21.60;99.90;;;;;;5021453;28;20136;-66
2023/06/21 08:37:13;;;;;;;9.23;7.95;;;21.60;99.90;;;;;;5023910;28;20045;-68
2023/06/21 08:39:40;;;;;;;7.40;6.80;;;21.50;99.90;;;;;;5023073;28;20124;-64
2023/06/21 08:42:08;;;;;;;7.75;7.05;;;21.60;99.90;;;;;;5022492;28;20065;-68
2023/06/21 08:44:35;;;;;;;10.55;8.13;;;21.70;99.90;;;;;;5024007;28;20049;-63
2023/06/21 08:47:06;;;;;;;9.43;8.50;;;21.70;99.90;;;;;;5020852;28;20052;-65
2023/06/21 08:49:40;;;;;;;8.65;7.82;;;21.70;99.90;;;;;;5025145;28;20045;-64
2023/06/21 08:52:19;;;;;;;9.20;7.13;;;21.70;99.90;;;;;;5024197;28;20107;-65
2023/06/21 08:55:01;;;;;;;8.18;7.38;;;21.50;99.90;;;;;;5024082;28;20045;-65
2023/06/21 08:57:32;;;;;;;10.52;8.43;;;21.50;99.90;;;;;;5022912;28;20045;-64
2023/06/21 09:00:05;;;;;;;10.15;8.93;;;21.70;99.90;;;;;;5021861;28;20049;-67
2023/06/21 09:02:52;;;;;;;10.13;9.13;;;21.60;99.90;;;;;;5017954;28;20427;-69
2023/06/21 09:05:37;;;;;;;8.80;7.93;;;21.60;99.90;;;;;;5020835;28;20128;-64
2023/06/21 09:08:05;;;;;;;8.18;7.47;;;21.60;99.90;;;;;;5018806;28;20061;-64
2023/06/21 09:10:38;;;;;;;13.88;8.88;;;21.60;99.90;;;;;;5021443;28;20514;-67
2023/06/21 09:13:06;;;;;;;;;;;21.70;99.90;;;;;;5021616;28;20092;-65
2023/06/21 09:15:33;;;;;;;15.20;9.57;;;21.80;99.90;;;;;;5023523;28;19968;-67
2023/06/21 09:18:00;;;;;;;12.65;8.93;;;21.80;99.90;;;;;;5015664;28;20068;-67
2023/06/21 09:20:28;;;;;;;14.40;9.50;;;21.70;99.90;;;;;;5019161;28;20029;-66
2023/06/21 09:22:57;;;;;;;13.15;10.00;;;21.80;99.90;;;;;;5018488;28;20130;-65
2023/06/21 09:25:25;;;;;;;11.38;10.18;;;21.80;99.90;;;;;;5021970;28;20053;-66
2023/06/21 09:27:52;;;;;;;8.95;8.10;;;21.80;99.90;;;;;;5018797;28;20485;-63
2023/06/21 09:30:21;;;;;;;11.27;8.40;;;21.80;99.90;;;;;;5020320;28;20553;-64
2023/06/21 09:32:51;;;;;;;9.73;8.82;;;21.90;99.90;;;;;;5014462;28;20076;-67
2023/06/21 09:35:18;;;;;;;9.40;8.50;;;22.10;99.90;;;;;;5017041;28;20041;-62
2023/06/21 09:37:45;;;;;;;8.45;7.75;;;22.10;99.90;;;;;;5019538;28;20077;-68
2023/06/21 09:40:13;;;;;;;10.45;9.55;;;22.20;99.90;;;;;;5020588;28;20107;-66
2023/06/21 09:42:41;;;;;;;10.05;9.15;;;22.30;99.90;;;;;;5021530;28;20064;-62
2023/06/21 09:45:16;;;;;;;9.85;8.55;;;22.40;99.90;;;;;;5019050;28;20076;-67
2023/06/21 09:47:44;;;;;;;8.43;7.65;;;22.40;99.90;;;;;;5022235;28;20509;-62
2023/06/21 09:50:11;;;;;;;8.80;8.00;;;22.40;99.90;;;;;;5023192;28;20069;-65
2023/06/21 09:52:45;;;;;;;10.13;9.23;;;22.50;99.90;;;;;;5020140;28;20037;-63
2023/06/21 09:55:16;;;;;;;8.80;8.00;;;22.60;99.90;;;;;;5019203;28;20060;-62
2023/06/21 09:57:43;;;;;;;9.35;8.45;;;22.60;99.90;;;;;;5021517;28;20044;-65
2023/06/21 10:00:12;;;;;;;7.95;7.25;;;22.80;99.90;;;;;;5023047;28;20128;-64
2023/06/21 10:02:39;;;;;;;8.02;7.05;;;22.90;99.90;;;;;;5021690;28;20058;-63
2023/06/21 10:05:19;;;;;;;8.15;7.45;;;23.10;99.90;;;;;;5016886;28;20568;-66
2023/06/21 10:07:47;;;;;;;9.15;7.22;;;23.30;99.90;;;;;;5023088;28;20054;-62
2023/06/21 10:10:14;;;;;;;7.78;6.97;;;23.40;99.90;;;;;;5023472;28;20095;-69
2023/06/21 10:12:51;;;;;;;7.38;6.70;;;23.40;99.90;;;;;;5025435;28;20988;-65
2023/06/21 10:15:22;;;;;;;7.05;6.45;;;23.70;99.90;;;;;;5021493;28;20767;-64
2023/06/21 10:17:50;;;;;;;7.93;7.22;;;23.90;99.90;;;;;;5016092;28;20034;-62
2023/06/21 10:20:33;;;;;;;9.40;8.45;;;24.20;99.90;;;;;;5022985;28;20052;-63
2023/06/21 10:23:04;;;;;;;7.65;7.05;;;24.70;99.90;;;;;;5021755;28;20045;-68
2023/06/21 10:25:31;;;;;;;9.00;8.20;;;25.00;99.90;;;;;;5018528;28;20107;-65
2023/06/21 10:28:00;;;;;;;7.97;7.32;;;25.40;99.90;;;;;;5014389;28;20160;-65
2023/06/21 10:30:28;;;;;;;8.75;7.95;;;25.60;99.90;;;;;;5011082;28;20057;-63
2023/06/21 10:33:00;;;;;;;8.40;7.78;;;25.90;99.90;;;;;;5014419;28;20076;-63
2023/06/21 10:35:30;;;;;;;7.95;7.15;;;26.20;99.90;;;;;;5019256;28;20052;-65
2023/06/21 10:38:13;;;;;;;8.23;7.28;;;26.40;99.90;;;;;;5016076;28;20049;-63
2023/06/21 10:40:41;;;;;;;7.53;6.80;;;26.50;99.90;;;;;;5019810;28;20049;-67
2023/06/21 10:43:10;;;;;;;11.02;7.75;;;26.60;99.90;;;;;;5012576;28;21501;-66
2023/06/21 10:45:38;;;;;;;7.88;7.18;;;26.80;99.90;;;;;;5023117;28;20140;-66
2023/06/21 10:48:08;;;;;;;9.07;6.82;;;26.90;99.90;;;;;;5016138;28;20480;-66
2023/06/21 10:50:35;;;;;;;7.80;7.00;;;26.90;99.90;;;;;;5024109;28;20041;-65
2023/06/21 10:53:04;;;;;;;6.60;6.10;;;27.00;99.90;;;;;;5024412;28;20473;-68
2023/06/21 10:55:31;;;;;;;7.10;6.40;;;27.10;99.90;;;;;;5023973;28;20137;-63
2023/06/21 10:58:00;;;;;;;9.43;8.05;;;27.20;99.90;;;;;;5022792;28;20820;-69
2023/06/21 11:00:28;;;;;;;7.50;6.80;;;27.20;99.90;;;;;;5025864;28;20754;-64
2023/06/21 11:02:56;;;;;;;8.48;6.47;;;27.30;99.90;;;;;;5026536;28;20041;-66
2023/06/21 11:05:25;;;;;;;7.15;6.55;;;27.20;99.90;;;;;;5022225;28;20127;-66
2023/06/21 11:07:58;;;;;;;7.97;7.27;;;27.10;99.90;;;;;;5022150;28;20046;-64
2023/06/21 11:10:40;;;;;;;8.30;6.90;;;27.10;99.90;;;;;;5026776;28;20045;-61
2023/06/21 11:13:09;;;;;;;7.45;6.75;;;27.00;99.90;;;;;;5023367;28;20037;-65
2023/06/21 11:15:40;;;;;;;8.82;8.02;;;26.90;99.90;;;;;;5021587;28;20119;-66
2023/06/21 11:18:09;;;;;;;8.13;6.88;;;26.90;99.90;;;;;;5028041;28;20174;-62
2023/06/21 11:20:50;;;;;;;9.20;8.20;;;27.00;99.90;;;;;;5023519;28;20646;-66
2023/06/21 11:23:19;;;;;;;8.57;7.78;;;27.20;99.90;;;;;;5026355;28;20072;-67
2023/06/21 11:25:53;;;;;;;7.65;6.95;;;27.40;99.90;;;;;;5023647;28;20061;-62
2023/06/21 11:28:31;;;;;;;7.72;7.00;;;27.60;99.90;;;;;;5025892;28;20928;-64
2023/06/21 11:31:01;;;;;;;9.98;6.95;;;27.90;99.90;;;;;;5025600;28;20454;-65
2023/06/21 11:33:43;;;;;;;8.88;8.07;;;27.90;99.90;;;;;;5019794;28;20068;-67
2023/06/21 11:36:10;;;;;;;7.05;6.45;;;27.90;99.90;;;;;;5022887;28;20045;-62
2023/06/21 11:38:47;;;;;;;7.70;7.05;;;27.70;99.90;;;;;;5025184;28;20060;-62
2023/06/21 11:41:34;;;;;;;7.90;6.88;;;27.70;99.90;;;;;;5020059;28;20100;-63
2023/06/21 11:44:01;;;;;;;7.72;7.05;;;27.60;99.90;;;;;;5024442;28;20052;-65
2023/06/21 11:46:31;;;;;;;7.45;6.82;;;27.70;99.90;;;;;;5021585;28;20065;-63
2023/06/21 11:48:59;;;;;;;7.68;7.05;;;27.80;99.90;;;;;;5019591;28;20040;-63
2023/06/21 11:51:28;;;;;;;7.72;6.93;;;27.80;99.90;;;;;;5021719;28;20103;-66
2023/06/21 11:53:58;;;;;;;7.63;6.93;;;27.80;99.90;;;;;;5021529;28;20103;-63
2023/06/21 11:56:32;;;;;;;7.75;7.15;;;27.30;99.90;;;;;;5021356;28;20640;-65
2023/06/21 11:58:59;;;;;;;7.38;6.68;;;26.80;99.90;;;;;;5024177;28;20050;-65
2023/06/21 12:01:27;;;;;;;7.97;7.35;;;26.60;99.90;;;;;;5023653;28;20050;-63
2023/06/21 12:04:02;;;;;;;8.50;6.60;;;26.40;99.90;;;;;;5024723;28;20546;-66
2023/06/21 12:06:29;;;;;;;6.97;6.38;;;26.50;99.90;;;;;;5023290;28;20068;-64
2023/06/21 12:08:57;;;;;;;7.13;6.45;;;26.40;99.90;;;;;;5024926;28;20127;-67
2023/06/21 12:11:28;;;;;;;6.90;6.30;;;26.40;99.90;;;;;;5017804;28;20061;-65
2023/06/21 12:13:56;;;;;;;8.77;7.85;;;26.30;99.90;;;;;;5021451;28;20041;-63
2023/06/21 12:16:25;;;;;;;7.75;6.63;;;26.20;99.90;;;;;;5022817;28;20622;-67
2023/06/21 12:18:52;;;;;;;7.82;7.13;;;25.70;99.90;;;;;;5023722;28;20046;-61
2023/06/21 12:21:19;;;;;;;6.55;5.95;;;25.30;99.90;;;;;;5025537;28;20072;-63
2023/06/21 12:23:46;;;;;;;7.45;6.50;;;25.40;99.90;;;;;;5021443;28;20099;-63
2023/06/21 12:26:15;;;;;;;8.40;7.70;;;25.40;99.90;;;;;;5019428;28;20096;-62
2023/06/21 12:28:41;;;;;;;7.22;6.63;;;25.30;99.90;;;;;;5024778;28;20080;-61
2023/06/21 12:31:16;;;;;;;8.02;7.13;;;25.40;99.90;;;;;;5022295;28;20045;-63
2023/06/21 12:33:43;;;;;;;7.30;6.50;;;25.40;99.90;;;;;;5021500;28;20049;-63
2023/06/21 12:36:25;;;;;;;8.73;7.75;;;25.50;99.90;;;;;;5022950;28;20411;-63
2023/06/21 12:39:04;;;;;;;7.80;7.03;;;25.40;99.90;;;;;;5023456;28;20045;-61
2023/06/21 12:41:33;;;;;;;7.85;7.15;;;25.60;99.90;;;;;;5024878;28;20788;-61
2023/06/21 12:44:02;;;;;;;6.70;6.00;;;25.80;99.90;;;;;;5021712;28;20702;-64
2023/06/21 12:46:37;;;;;;;9.60;6.47;;;25.50;99.90;;;;;;5026123;28;20048;-64
2023/06/21 12:49:04;;;;;;;8.75;7.05;;;25.40;99.90;;;;;;5014775;28;20045;-63